This is the latest recevied weather packets stored in our database for station/object KQ4DLB-13. If no packets are shown the sender has not sent any weather packets the latest 10 day(s).
| Time | Temp. | Humidity | Pressure | Rain* | Wind** | Luminosity | Snow |
|---|---|---|---|---|---|---|---|
| 1776967502 | 25.56° C | 48% | 991.2 hPa | 0 mm | - | 202 W/m² | - |
| 1776967202 | 25.56° C | 48% | 991.4 hPa | 0 mm | - | 564 W/m² | - |
| 1776966902 | 25.56° C | 47% | 991.5 hPa | 0 mm | - | 448 W/m² | - |
| 1776966603 | 25.56° C | 47% | 991.7 hPa | 0 mm | - | 785 W/m² | - |
| 1776966302 | 25° C | 48% | 991.8 hPa | 0 mm | - | 650 W/m² | - |
| 1776966002 | 25° C | 47% | 991.7 hPa | 0 mm | - | 420 W/m² | - |
| 1776965702 | 25° C | 50% | 991.9 hPa | 0 mm | - | 535 W/m² | - |
| 1776965402 | 25° C | 52% | 991.9 hPa | 0 mm | - | 428 W/m² | - |
| 1776965102 | 25° C | 54% | 992 hPa | 0 mm | - | 351 W/m² | - |
| 1776964802 | 25° C | 53% | 992.1 hPa | 0 mm | - | 287 W/m² | - |
| 1776964502 | 25.56° C | 51% | 992.2 hPa | 0 mm | - | 358 W/m² | - |
| 1776964202 | 25.56° C | 52% | 992.4 hPa | 0 mm | - | 606 W/m² | - |
| 1776963902 | 26.11° C | 51% | 992.5 hPa | 0 mm | - | 729 W/m² | - |
| 1776963602 | 26.11° C | 49% | 992.6 hPa | 0 mm | - | 915 W/m² | - |
| 1776963302 | 26.11° C | 49% | 992.8 hPa | 0 mm | - | 918 W/m² | - |
| 1776963002 | 26.11° C | 50% | 992.9 hPa | 0 mm | - | 986 W/m² | - |
| 1776962703 | 25.56° C | 50% | 993 hPa | 0 mm | - | 957 W/m² | - |
| 1776962403 | 25.56° C | 51% | 993 hPa | 0 mm | - | 930 W/m² | - |
| 1776962102 | 25.56° C | 51% | 993 hPa | 0 mm | - | 882 W/m² | - |
| 1776961802 | 25° C | 53% | 993.1 hPa | 0 mm | - | 846 W/m² | - |
| 1776961502 | 25° C | 52% | 993.1 hPa | 0 mm | - | 874 W/m² | - |
| 1776961202 | 25° C | 52% | 993.1 hPa | 0 mm | - | 765 W/m² | - |
| 1776960903 | 25° C | 53% | 993.2 hPa | 0 mm | - | 828 W/m² | - |
| 1776960602 | 24.44° C | 53% | 993.3 hPa | 0 mm | - | 806 W/m² | - |
| 1776960303 | 24.44° C | 54% | 993.3 hPa | 0 mm | - | 812 W/m² | - |
* Rain latest hour (hover to see other rain measurements)
** Current wind speed in m/s (hover to see current wind gust speed)